createdAt,value
2019-04-10T00:02:02.457Z,5.80
2019-04-10T00:04:31.410Z,5.70
2019-04-10T00:07:08.526Z,5.70
2019-04-10T00:09:31.396Z,5.60
2019-04-10T00:11:59.266Z,5.60
2019-04-10T00:14:28.275Z,5.60
2019-04-10T00:16:57.111Z,5.60
2019-04-10T00:19:26.704Z,5.50
2019-04-10T00:21:55.659Z,5.50
2019-04-10T00:24:23.985Z,5.40
2019-04-10T00:26:53.020Z,5.40
2019-04-10T00:29:22.397Z,5.40
2019-04-10T00:31:50.788Z,5.40
2019-04-10T00:34:23.383Z,5.40
2019-04-10T00:36:51.476Z,5.30
2019-04-10T00:39:20.154Z,5.30
2019-04-10T00:41:48.386Z,5.20
2019-04-10T00:44:16.426Z,5.20
2019-04-10T00:46:52.793Z,5.20
2019-04-10T00:49:21.806Z,5.10
2019-04-10T00:51:50.033Z,5.10
2019-04-10T00:54:18.571Z,5.10
2019-04-10T00:56:59.644Z,5.00
2019-04-10T00:59:28.215Z,5.00
2019-04-10T01:01:58.251Z,4.90
2019-04-10T01:04:26.598Z,4.90
2019-04-10T01:06:54.527Z,4.80
2019-04-10T01:09:23.659Z,4.80
2019-04-10T01:11:51.710Z,4.80
2019-04-10T01:14:21.453Z,4.70
2019-04-10T01:16:51.576Z,4.70
2019-04-10T01:19:19.615Z,4.60
2019-04-10T01:21:47.485Z,4.60
2019-04-10T01:24:15.460Z,4.50
2019-04-10T01:26:45.511Z,4.50
2019-04-10T01:29:14.139Z,4.40
2019-04-10T01:31:47.804Z,4.40
2019-04-10T01:34:17.102Z,4.30
2019-04-10T01:36:45.936Z,4.20
2019-04-10T01:39:20.270Z,4.30
2019-04-10T01:41:48.046Z,4.20
2019-04-10T01:44:16.588Z,4.20
2019-04-10T01:46:44.474Z,4.10
2019-04-10T01:49:15.573Z,4.00
2019-04-10T01:51:43.562Z,4.00
2019-04-10T01:54:13.349Z,4.00
2019-04-10T01:56:46.448Z,3.90
2019-04-10T01:59:15.901Z,3.90
2019-04-10T02:01:51.202Z,3.80
2019-04-10T02:04:18.991Z,3.80
2019-04-10T02:06:48.302Z,3.70
2019-04-10T02:09:16.924Z,3.70
2019-04-10T02:11:46.636Z,3.70
2019-04-10T02:14:14.568Z,3.70
2019-04-10T02:16:49.356Z,3.60
2019-04-10T02:19:18.418Z,3.50
2019-04-10T02:21:46.172Z,3.50
2019-04-10T02:24:16.700Z,3.50
2019-04-10T02:26:45.550Z,3.50
2019-04-10T02:29:13.467Z,3.50
2019-04-10T02:31:41.717Z,3.40
2019-04-10T02:34:09.748Z,3.50
2019-04-10T02:36:38.521Z,3.40
2019-04-10T02:39:19.092Z,3.40
2019-04-10T02:41:38.415Z,3.40
2019-04-10T02:44:07.809Z,3.30
2019-04-10T02:46:37.060Z,3.30
2019-04-10T02:49:12.247Z,3.30
2019-04-10T02:51:45.505Z,3.30
2019-04-10T02:54:15.362Z,3.30
2019-04-10T02:56:49.648Z,3.20
2019-04-10T02:59:18.646Z,3.20
2019-04-10T03:01:47.411Z,3.20
2019-04-10T03:04:18.314Z,3.10
2019-04-10T03:06:47.144Z,3.10
2019-04-10T03:09:40.548Z,3.00
2019-04-10T03:11:49.865Z,3.10
2019-04-10T03:14:18.961Z,3.00
2019-04-10T03:16:49.362Z,3.00
2019-04-10T03:19:17.075Z,3.00
2019-04-10T03:21:45.284Z,2.90
2019-04-10T03:24:13.890Z,2.90
2019-04-10T03:26:41.931Z,2.90
2019-04-10T03:29:09.819Z,2.90
2019-04-10T03:31:39.192Z,2.90
2019-04-10T03:34:16.882Z,2.80
2019-04-10T03:36:45.776Z,2.80
2019-04-10T03:39:15.794Z,2.80
2019-04-10T03:41:44.265Z,2.80
2019-04-10T03:44:32.460Z,2.80
2019-04-10T03:47:00.783Z,2.60
2019-04-10T03:49:30.757Z,2.80
2019-04-10T03:51:58.882Z,2.70
2019-04-10T03:54:26.786Z,2.70
2019-04-10T03:56:54.853Z,2.70
2019-04-10T03:59:24.266Z,2.70
2019-04-10T04:01:53.495Z,2.60
2019-04-10T04:04:21.686Z,2.60
2019-04-10T04:06:50.248Z,2.60
2019-04-10T04:09:23.716Z,2.60
2019-04-10T04:11:51.747Z,2.60
2019-04-10T04:14:25.242Z,2.50
2019-04-10T04:16:52.913Z,2.50
2019-04-10T04:19:20.370Z,2.50
2019-04-10T04:21:48.777Z,2.50
2019-04-10T04:24:17.865Z,2.40
2019-04-10T04:26:46.869Z,2.40
2019-04-10T04:29:16.412Z,2.40
2019-04-10T04:31:44.143Z,2.40
2019-04-10T04:34:12.252Z,2.40
2019-04-10T04:36:40.891Z,2.30
2019-04-10T04:39:20.976Z,2.30
2019-04-10T04:41:40.419Z,2.30
2019-04-10T04:44:08.176Z,2.30
2019-04-10T04:46:36.524Z,2.40
2019-04-10T04:49:04.273Z,2.40
2019-04-10T04:51:37.789Z,2.40
2019-04-10T04:54:06.601Z,2.40
2019-04-10T04:56:36.445Z,2.40
2019-04-10T04:59:04.109Z,2.40
2019-04-10T05:01:31.852Z,2.40
2019-04-10T05:04:00.323Z,2.40
2019-04-10T05:06:28.440Z,2.40
2019-04-10T05:09:00.131Z,2.40
2019-04-10T05:11:28.482Z,2.40
2019-04-10T05:13:57.263Z,2.40
2019-04-10T05:16:24.930Z,2.30
2019-04-10T05:18:54.121Z,2.40
2019-04-10T05:21:23.176Z,2.30
2019-04-10T05:23:51.268Z,2.40
2019-04-10T05:26:20.677Z,2.40
2019-04-10T05:28:48.683Z,2.30
2019-04-10T05:31:17.242Z,2.40
2019-04-10T05:33:45.730Z,2.40
2019-04-10T05:36:13.482Z,2.30
2019-04-10T05:38:41.885Z,2.40
2019-04-10T05:41:09.434Z,2.40
2019-04-10T05:43:39.361Z,2.30
2019-04-10T05:46:07.182Z,2.40
2019-04-10T05:48:35.631Z,2.30
2019-04-10T05:51:05.695Z,2.40
2019-04-10T05:53:36.542Z,2.40
2019-04-10T05:56:05.547Z,2.50
2019-04-10T05:58:34.016Z,2.50
2019-04-10T06:01:05.263Z,2.50
2019-04-10T06:03:34.221Z,2.50
2019-04-10T06:06:01.743Z,2.50
2019-04-10T06:08:31.066Z,2.60
2019-04-10T06:11:00.177Z,2.60
2019-04-10T06:13:28.022Z,2.60
2019-04-10T06:15:59.434Z,2.60
2019-04-10T06:18:27.466Z,2.60
2019-04-10T06:20:58.811Z,2.70
2019-04-10T06:23:35.910Z,2.70
2019-04-10T06:26:06.764Z,2.70
2019-04-10T06:28:35.563Z,2.80
2019-04-10T06:31:09.567Z,2.90
2019-04-10T06:33:38.779Z,2.90
2019-04-10T06:36:06.398Z,3.10
2019-04-10T06:38:33.631Z,3.40
2019-04-10T06:41:02.235Z,3.80
2019-04-10T06:43:30.867Z,4.10
2019-04-10T06:45:58.275Z,4.40
2019-04-10T06:48:26.123Z,4.60
2019-04-10T06:50:54.013Z,5.00
2019-04-10T06:53:22.699Z,5.30
2019-04-10T06:55:57.594Z,5.50
2019-04-10T06:58:27.593Z,5.80
2019-04-10T07:00:58.320Z,6.30
2019-04-10T07:03:44.768Z,6.40
2019-04-10T07:06:07.786Z,6.30
2019-04-10T07:08:31.980Z,7.00
2019-04-10T07:11:10.019Z,6.90
2019-04-10T07:13:39.945Z,7.50
2019-04-10T07:16:08.443Z,7.70
2019-04-10T07:18:40.148Z,7.90
2019-04-10T07:21:10.618Z,8.30
2019-04-10T07:23:38.745Z,8.50
2019-04-10T07:26:14.523Z,8.50
2019-04-10T07:28:43.960Z,8.60
2019-04-10T07:31:11.649Z,8.80
2019-04-10T07:33:40.592Z,8.60
2019-04-10T07:36:12.605Z,8.80
2019-04-10T07:38:39.307Z,9.20
2019-04-10T07:41:13.699Z,10.10
2019-04-10T07:43:38.540Z,10.10
2019-04-10T07:46:06.366Z,9.90
2019-04-10T07:48:33.982Z,9.90
2019-04-10T07:51:02.855Z,9.80
2019-04-10T07:53:31.020Z,10.20
2019-04-10T07:56:06.310Z,9.90
2019-04-10T07:58:29.918Z,10.70
2019-04-10T08:00:58.854Z,11.00
2019-04-10T08:03:26.884Z,11.30
2019-04-10T08:05:55.305Z,11.40
2019-04-10T08:08:23.634Z,11.10
2019-04-10T08:10:53.031Z,11.80
2019-04-10T08:13:22.948Z,11.90
2019-04-10T08:15:52.149Z,11.80
2019-04-10T08:18:20.928Z,11.90
2019-04-10T08:20:49.038Z,12.40
2019-04-10T08:23:17.572Z,12.50
2019-04-10T08:25:45.676Z,12.50
2019-04-10T08:28:13.785Z,13.00
2019-04-10T08:30:43.935Z,12.70
2019-04-10T08:33:12.280Z,12.60
2019-04-10T08:35:42.600Z,13.00
2019-04-10T08:38:10.495Z,13.20
2019-04-10T08:40:41.666Z,13.30
2019-04-10T08:43:09.448Z,13.40
2019-04-10T08:45:46.207Z,14.00
2019-04-10T08:48:08.026Z,14.00
2019-04-10T08:50:38.533Z,14.00
2019-04-10T08:53:06.829Z,13.70
2019-04-10T08:55:35.221Z,13.30
2019-04-10T08:58:03.647Z,13.70
2019-04-10T09:00:32.959Z,14.50
2019-04-10T09:03:03.710Z,14.40
2019-04-10T09:05:33.640Z,14.60
2019-04-10T09:08:02.497Z,14.50
2019-04-10T09:10:30.463Z,14.40
2019-04-10T09:13:00.598Z,15.10
2019-04-10T09:15:29.835Z,15.00
2019-04-10T09:17:57.972Z,15.20
2019-04-10T09:20:26.775Z,15.00
2019-04-10T09:23:13.386Z,14.40
2019-04-10T09:25:25.109Z,14.50
2019-04-10T09:27:53.944Z,15.00
2019-04-10T09:30:22.229Z,15.70
2019-04-10T09:32:50.712Z,15.30
2019-04-10T09:35:20.570Z,15.20
2019-04-10T09:37:48.619Z,15.50
2019-04-10T09:40:16.426Z,14.60
2019-04-10T09:42:47.898Z,14.90
2019-04-10T09:45:16.287Z,14.90
2019-04-10T09:47:43.888Z,14.90
2019-04-10T09:50:15.153Z,15.20
2019-04-10T09:52:44.430Z,15.70
2019-04-10T09:55:20.124Z,16.00
2019-04-10T09:57:47.648Z,16.50
2019-04-10T10:00:15.420Z,16.20
2019-04-10T10:02:43.313Z,15.90
2019-04-10T10:05:11.176Z,15.30
2019-04-10T10:07:39.086Z,16.10
2019-04-10T10:10:08.756Z,16.80
2019-04-10T10:12:36.574Z,17.20
2019-04-10T10:15:05.516Z,16.60
2019-04-10T10:17:34.880Z,16.70
2019-04-10T10:20:03.634Z,17.00
2019-04-10T10:22:33.736Z,17.20
2019-04-10T10:25:02.825Z,17.30
2019-04-10T10:27:32.260Z,17.20
2019-04-10T10:30:02.192Z,17.20
2019-04-10T10:32:33.047Z,18.10
2019-04-10T10:35:03.028Z,18.70
2019-04-10T10:37:37.463Z,18.10
2019-04-10T10:40:08.251Z,18.30
2019-04-10T10:42:38.099Z,17.90
2019-04-10T10:45:12.371Z,18.00
2019-04-10T10:47:40.856Z,18.20
2019-04-10T10:50:09.102Z,18.60
2019-04-10T10:52:36.796Z,19.20
2019-04-10T10:55:05.364Z,18.80
2019-04-10T10:57:33.353Z,19.00
2019-04-10T11:00:04.120Z,18.40
2019-04-10T11:02:38.764Z,18.20
2019-04-10T11:05:07.175Z,18.70
2019-04-10T11:07:36.025Z,18.70
2019-04-10T11:10:04.253Z,18.90
2019-04-10T11:12:32.173Z,19.10
2019-04-10T11:14:59.643Z,18.10
2019-04-10T11:17:29.756Z,18.10
2019-04-10T11:19:58.050Z,18.50
2019-04-10T11:22:28.941Z,18.30
2019-04-10T11:24:57.545Z,18.70
2019-04-10T11:27:25.517Z,19.00
2019-04-10T11:29:57.562Z,18.20
2019-04-10T11:32:26.518Z,17.80
2019-04-10T11:34:55.598Z,18.50
2019-04-10T11:37:34.420Z,18.40
2019-04-10T11:39:54.620Z,18.50
2019-04-10T11:42:22.688Z,18.50
2019-04-10T11:44:53.659Z,19.10
2019-04-10T11:47:24.835Z,19.00
2019-04-10T11:49:53.871Z,19.00
2019-04-10T11:52:33.002Z,18.80
2019-04-10T11:54:53.178Z,18.50
2019-04-10T11:57:30.789Z,18.60
2019-04-10T12:00:01.161Z,18.60
2019-04-10T12:02:32.164Z,18.60
2019-04-10T12:05:07.036Z,18.90
2019-04-10T12:07:54.977Z,18.80
2019-04-10T12:12:28.108Z,19.00
2019-04-10T12:14:56.605Z,18.20
2019-04-10T12:17:25.555Z,17.70
2019-04-10T12:19:54.316Z,17.40
2019-04-10T12:22:23.258Z,17.80
2019-04-10T12:24:51.678Z,17.70
2019-04-10T12:27:20.866Z,17.40
2019-04-10T12:29:48.857Z,17.80
2019-04-10T12:32:16.890Z,17.90
2019-04-10T12:34:44.753Z,18.40
2019-04-10T12:37:13.307Z,18.00
2019-04-10T12:39:41.747Z,18.00
2019-04-10T12:42:10.076Z,17.60
2019-04-10T12:44:40.922Z,17.70
2019-04-10T12:47:10.232Z,17.90
2019-04-10T12:49:38.031Z,17.40
2019-04-10T12:52:16.428Z,17.60
2019-04-10T12:54:46.975Z,17.90
2019-04-10T12:57:17.019Z,17.80
2019-04-10T12:59:47.790Z,17.50
2019-04-10T13:02:28.173Z,17.50
2019-04-10T13:05:00.848Z,17.00
2019-04-10T13:07:28.039Z,17.60
2019-04-10T13:10:04.465Z,16.80
2019-04-10T13:12:35.480Z,17.00
2019-04-10T13:15:05.375Z,17.10
2019-04-10T13:17:36.613Z,16.80
2019-04-10T13:20:07.276Z,17.10
2019-04-10T13:22:35.978Z,17.00
2019-04-10T13:25:04.658Z,16.60
2019-04-10T13:27:32.445Z,17.00
2019-04-10T13:30:00.668Z,17.30
2019-04-10T13:32:31.828Z,17.20
2019-04-10T13:35:00.352Z,16.80
2019-04-10T13:37:28.460Z,17.00
2019-04-10T13:40:03.548Z,17.20
2019-04-10T13:42:32.193Z,17.00
2019-04-10T13:45:04.682Z,17.10
2019-04-10T13:47:32.799Z,16.60
2019-04-10T13:50:02.269Z,16.60
2019-04-10T13:52:32.078Z,16.90
2019-04-10T13:55:01.122Z,17.10
2019-04-10T13:57:32.636Z,17.10
2019-04-10T14:00:04.305Z,16.60
2019-04-10T14:02:37.224Z,16.40
2019-04-10T14:05:07.390Z,16.50
2019-04-10T14:07:36.060Z,16.80
2019-04-10T14:10:12.528Z,16.40
2019-04-10T14:12:43.019Z,16.20
2019-04-10T14:15:10.906Z,16.30
2019-04-10T14:17:39.030Z,16.00
2019-04-10T14:20:09.034Z,16.20
2019-04-10T14:22:44.089Z,16.40
2019-04-10T14:25:23.119Z,16.10
2019-04-10T14:28:04.863Z,16.00
2019-04-10T14:30:35.633Z,16.10
2019-04-10T14:33:03.645Z,16.00
2019-04-10T14:35:31.479Z,16.10
2019-04-10T14:37:59.236Z,15.90
2019-04-10T14:40:26.999Z,15.80
2019-04-10T14:42:57.693Z,15.70
2019-04-10T14:45:26.399Z,15.80
2019-04-10T14:47:54.469Z,15.60
2019-04-10T14:50:23.929Z,15.40
2019-04-10T14:52:52.314Z,15.60
2019-04-10T14:55:21.853Z,15.80
2019-04-10T14:57:50.908Z,15.80
2019-04-10T15:00:34.896Z,15.50
2019-04-10T15:03:05.041Z,15.60
2019-04-10T15:05:44.481Z,15.80
2019-04-10T15:08:03.634Z,15.40
2019-04-10T15:10:35.987Z,15.20
2019-04-10T15:13:09.985Z,15.20
2019-04-10T15:15:34.531Z,15.10
2019-04-10T15:18:03.060Z,15.00
2019-04-10T15:20:33.491Z,14.90
2019-04-10T15:23:01.547Z,14.70
2019-04-10T15:25:29.312Z,14.50
2019-04-10T15:27:57.943Z,14.40
2019-04-10T15:30:26.491Z,14.40
2019-04-10T15:32:56.027Z,14.20
2019-04-10T15:35:24.372Z,14.10
2019-04-10T15:37:53.467Z,13.90
2019-04-10T15:40:25.554Z,13.80
2019-04-10T15:42:50.905Z,13.60
2019-04-10T15:45:22.258Z,13.60
2019-04-10T15:47:54.143Z,13.60
2019-04-10T15:50:20.335Z,13.50
2019-04-10T15:52:50.227Z,13.50
2019-04-10T15:55:18.233Z,13.30
2019-04-10T15:57:52.980Z,13.20
2019-04-10T16:00:16.981Z,13.10
2019-04-10T16:02:44.899Z,12.90
2019-04-10T16:05:13.329Z,12.80
2019-04-10T16:07:41.174Z,12.70
2019-04-10T16:10:35.099Z,12.60
2019-04-10T16:13:06.113Z,12.70
2019-04-10T16:15:38.842Z,12.80
2019-04-10T16:18:11.396Z,12.90
2019-04-10T16:20:39.262Z,12.60
2019-04-10T16:23:37.697Z,12.60
2019-04-10T16:26:07.065Z,12.30
2019-04-10T16:28:35.530Z,12.30
2019-04-10T16:31:04.073Z,12.20
2019-04-10T16:33:39.020Z,12.30
2019-04-10T16:36:06.942Z,12.20
2019-04-10T16:38:34.850Z,12.00
2019-04-10T16:41:04.398Z,12.00
2019-04-10T16:43:38.288Z,11.90
2019-04-10T16:46:07.029Z,11.80
2019-04-10T16:48:35.727Z,11.70
2019-04-10T16:51:04.427Z,11.60
2019-04-10T16:53:34.149Z,11.60
2019-04-10T16:56:02.059Z,11.60
2019-04-10T16:58:31.936Z,11.60
2019-04-10T17:01:00.469Z,11.50
2019-04-10T17:03:29.601Z,11.40
2019-04-10T17:05:57.735Z,11.40
2019-04-10T17:08:25.853Z,11.30
2019-04-10T17:10:53.594Z,11.10
2019-04-10T17:13:24.507Z,11.00
2019-04-10T17:15:57.610Z,10.80
2019-04-10T17:18:27.449Z,10.70
2019-04-10T17:20:55.212Z,10.70
2019-04-10T17:23:24.684Z,10.70
2019-04-10T17:25:54.722Z,10.50
2019-04-10T17:28:24.993Z,10.30
2019-04-10T17:30:54.263Z,10.30
2019-04-10T17:33:25.084Z,10.20
2019-04-10T17:35:53.955Z,10.00
2019-04-10T17:38:26.721Z,9.90
2019-04-10T17:40:57.062Z,9.80
2019-04-10T17:43:26.999Z,9.80
2019-04-10T17:46:04.875Z,9.80
2019-04-10T17:48:34.780Z,9.50
2019-04-10T17:51:05.729Z,9.50
2019-04-10T17:53:36.174Z,9.40
2019-04-10T17:56:04.307Z,9.30
2019-04-10T17:58:32.019Z,9.20
2019-04-10T18:01:02.428Z,9.10
2019-04-10T18:03:46.080Z,8.90
2019-04-10T18:06:15.220Z,8.80
2019-04-10T18:08:45.257Z,8.80
2019-04-10T18:11:16.130Z,8.70
2019-04-10T18:13:44.945Z,8.60
2019-04-10T18:16:13.135Z,8.40
2019-04-10T18:18:40.578Z,8.30
2019-04-10T18:21:08.645Z,8.40
2019-04-10T18:23:36.302Z,8.30
2019-04-10T18:26:04.582Z,8.20
2019-04-10T18:28:33.530Z,8.10
2019-04-10T18:31:02.702Z,8.00
2019-04-10T18:33:30.888Z,7.90
2019-04-10T18:35:59.470Z,7.80
2019-04-10T18:38:27.934Z,7.70
2019-04-10T18:41:02.061Z,7.60
2019-04-10T18:43:25.949Z,7.50
2019-04-10T18:46:07.055Z,7.50
2019-04-10T18:48:25.418Z,7.40
2019-04-10T18:50:53.746Z,7.30
2019-04-10T18:53:22.303Z,7.30
2019-04-10T18:55:52.331Z,7.20
2019-04-10T18:58:24.380Z,7.10
2019-04-10T19:01:27.168Z,7.20
2019-04-10T19:04:11.411Z,7.00
2019-04-10T19:06:57.259Z,7.00
2019-04-10T19:09:28.069Z,6.90
2019-04-10T19:11:57.022Z,6.80
2019-04-10T19:14:35.856Z,6.80
2019-04-10T19:17:02.356Z,6.80
2019-04-10T19:19:32.380Z,6.60
2019-04-10T19:22:00.486Z,6.70
2019-04-10T19:24:30.126Z,6.60
2019-04-10T19:26:59.932Z,6.60
2019-04-10T19:29:28.148Z,6.50
2019-04-10T19:31:58.272Z,6.50
2019-04-10T19:34:31.693Z,6.30
2019-04-10T19:37:01.426Z,6.30
2019-04-10T19:39:38.603Z,6.10
2019-04-10T19:42:06.981Z,6.20
2019-04-10T19:44:35.162Z,6.10
2019-04-10T19:47:04.145Z,6.10
2019-04-10T19:49:32.843Z,6.00
2019-04-10T19:52:00.389Z,6.00
2019-04-10T19:54:28.326Z,5.90
2019-04-10T19:56:57.110Z,5.80
2019-04-10T19:59:25.026Z,5.80
2019-04-10T20:01:52.743Z,5.80
2019-04-10T20:04:20.725Z,5.80
2019-04-10T20:06:48.873Z,5.70
2019-04-10T20:09:17.531Z,5.70
2019-04-10T20:11:50.079Z,5.70
2019-04-10T20:14:15.447Z,5.60
2019-04-10T20:16:44.309Z,5.50
2019-04-10T20:19:12.947Z,5.60
2019-04-10T20:21:40.500Z,5.50
2019-04-10T20:24:10.389Z,5.50
2019-04-10T20:26:39.047Z,5.40
2019-04-10T20:29:07.678Z,5.30
2019-04-10T20:31:37.428Z,5.30
2019-04-10T20:34:07.351Z,5.20
2019-04-10T20:36:35.323Z,5.30
2019-04-10T20:39:06.077Z,5.30
2019-04-10T20:41:44.827Z,5.20
2019-04-10T20:44:04.201Z,5.20
2019-04-10T20:46:32.480Z,5.10
2019-04-10T20:49:00.569Z,5.00
2019-04-10T20:51:30.419Z,5.00
2019-04-10T20:53:58.277Z,5.00
2019-04-10T20:56:26.429Z,4.90
2019-04-10T20:59:06.175Z,4.90
2019-04-10T21:01:33.833Z,4.90
2019-04-10T21:14:13.444Z,4.70
2019-04-10T21:16:40.437Z,4.70
2019-04-10T21:19:12.882Z,4.60
2019-04-10T21:21:41.325Z,4.60
2019-04-10T21:24:09.266Z,4.50
2019-04-10T21:26:40.940Z,4.40
2019-04-10T21:29:36.354Z,4.50
2019-04-10T21:32:13.044Z,4.30
2019-04-10T21:34:42.735Z,4.40
2019-04-10T21:37:10.212Z,4.40
2019-04-10T21:39:41.867Z,4.30
2019-04-10T21:42:19.504Z,4.20
2019-04-10T21:44:40.917Z,4.30
2019-04-10T21:47:11.083Z,4.20
2019-04-10T21:49:41.480Z,4.20
2019-04-10T21:52:08.369Z,4.10
2019-04-10T21:54:46.466Z,4.10
2019-04-10T21:57:09.573Z,4.10
2019-04-10T21:59:38.971Z,4.10
2019-04-10T22:02:06.837Z,4.00
2019-04-10T22:04:34.928Z,3.90
2019-04-10T22:07:27.830Z,3.90
2019-04-10T22:10:23.888Z,3.90
2019-04-10T22:12:52.628Z,3.90
2019-04-10T22:15:26.937Z,3.80
2019-04-10T22:17:54.906Z,3.80
2019-04-10T22:20:21.900Z,3.70
2019-04-10T22:22:48.712Z,3.70
2019-04-10T22:25:15.660Z,3.70
2019-04-10T22:27:43.492Z,3.70
2019-04-10T22:30:10.786Z,3.70
2019-04-10T22:32:38.761Z,3.50
2019-04-10T22:35:11.027Z,3.60
2019-04-10T22:37:44.125Z,3.60
2019-04-10T22:40:19.321Z,3.60
2019-04-10T22:42:48.639Z,3.50
2019-04-10T22:45:24.665Z,3.50
2019-04-10T22:47:52.147Z,3.50
2019-04-10T22:50:22.369Z,3.40
2019-04-10T22:52:49.226Z,3.40
2019-04-10T22:55:22.019Z,3.50
2019-04-10T22:57:57.088Z,3.40
2019-04-10T23:00:30.586Z,3.30
2019-04-10T23:03:02.640Z,3.30
2019-04-10T23:05:32.417Z,3.30
2019-04-10T23:07:59.613Z,3.40
2019-04-10T23:10:26.858Z,3.20
2019-04-10T23:13:02.180Z,3.30
2019-04-10T23:15:25.311Z,3.30
2019-04-10T23:17:57.262Z,3.20
2019-04-10T23:20:25.895Z,3.20
2019-04-10T23:22:54.970Z,3.10
2019-04-10T23:25:22.495Z,3.10
2019-04-10T23:27:53.419Z,3.10
2019-04-10T23:30:21.456Z,3.00
2019-04-10T23:32:59.841Z,3.00
2019-04-10T23:35:33.705Z,3.00
2019-04-10T23:38:17.494Z,3.00
2019-04-10T23:40:51.624Z,2.90
2019-04-10T23:43:25.092Z,2.90
2019-04-10T23:45:54.438Z,2.90
2019-04-10T23:48:22.499Z,2.70
2019-04-10T23:50:50.662Z,2.90
2019-04-10T23:53:22.601Z,2.90
2019-04-10T23:55:58.742Z,2.80
2019-04-10T23:58:26.777Z,2.80
